Weather at Oslo Airport, Gardermoen

Public forecast

Using degrees Celsius for public forecast. Weather courtesy of forecast.io.

Current aviation weather report (METAR) for Oslo Airport, Gardermoen

Retrieved 2022/08/16 19:20 UTC (38 seconds ago):

ENGM 161920Z 11003KT 030V170 9999 -RA SCT004 BKN009 19/17 Q1006 TEMPO 4000 SHRA SCT008 BKN025

Aviation forecast (TAF) for Oslo Airport, Gardermoen

Retrieved 2022/08/16 18:57 UTC (24 minutes ago):

TAF ENGM 161700Z 1618/1718 18005KT 9999 FEW012 BKN025 TEMPO 1618/1623 2500 TSRA BKN012 SCT030CB BECMG 1622/1624 BKN006 PROB40 1700/1708 0700 FG VV002 BECMG 1709/1712 SCT015